Time;durP1;ratioP1;P1;durP2;ratioP2;P2;SDS_P1;SDS_P2;PMS_P1;PMS_P2;Temp;Humidity;BMP_temperature;BMP_pressure;BME280_temperature;BME280_humidity;BME280_pressure;Samples;Min_cycle;Max_cycle;Signal;HPM_P1;HPM_P2
2023/04/05 04:22:37;;;;;;;5.28;2.38;;;;;;;-0.43;85.65;100782.56;5109928;27;20399;-62
2023/04/05 04:25:25;;;;;;;2.72;2.35;;;;;;;-0.36;84.98;100789.09;5088228;28;20542;-63
2023/04/05 04:28:00;;;;;;;2.75;2.05;;;;;;;-0.26;84.63;100789.44;5108324;28;20024;-63
2023/04/05 04:30:42;;;;;;;3.38;2.45;;;;;;;-0.25;83.17;100788.50;5108721;28;20040;-62
2023/04/05 04:33:27;;;;;;;3.10;2.22;;;;;;;-0.32;84.09;100771.47;5108465;28;20645;-63
2023/04/05 04:36:25;;;;;;;3.70;2.90;;;;;;;-0.34;84.39;100789.84;5108342;28;20077;-63
2023/04/05 04:39:14;;;;;;;3.15;2.25;;;;;;;-0.39;85.48;100798.91;5109256;28;20061;-63
2023/04/05 04:42:18;;;;;;;2.63;2.13;;;;;;;-0.43;86.20;100795.63;5086818;28;20051;-63
2023/04/05 04:45:06;;;;;;;4.43;2.50;;;;;;;-0.43;85.93;100800.03;5106385;28;20416;-63
2023/04/05 04:47:52;;;;;;;4.43;3.40;;;;;;;-0.39;85.84;100796.28;5109164;28;20104;-63
2023/04/05 04:50:38;;;;;;;4.90;3.05;;;;;;;-0.47;86.22;100788.88;5109134;28;20475;-63
2023/04/05 04:53:03;;;;;;;5.05;3.35;;;;;;;-0.40;86.36;100797.22;5108171;28;20071;-63
2023/04/05 04:55:29;;;;;;;3.95;3.30;;;;;;;-0.43;86.59;100793.03;5109292;28;20067;-64
2023/04/05 04:57:55;;;;;;;4.65;3.25;;;;;;;-0.43;86.09;100792.19;5108900;28;20126;-63
2023/04/05 05:00:22;;;;;;;7.03;2.42;;;;;;;-0.42;85.97;100793.88;5109071;28;20480;-63
2023/04/05 05:02:51;;;;;;;5.38;2.47;;;;;;;-0.46;85.62;100779.25;5107880;28;20127;-63
2023/04/05 05:05:17;;;;;;;;;;;;;;;-0.42;86.29;100793.88;5108242;28;20116;-63
2023/04/05 05:07:42;;;;;;;3.42;3.08;;;;;;;-0.34;85.61;100794.25;5108897;28;20372;-63
2023/04/05 05:10:09;;;;;;;2.75;2.45;;;;;;;-0.37;85.47;100792.66;5109079;28;20100;-63
2023/04/05 05:12:36;;;;;;;3.50;2.97;;;;;;;-0.49;87.18;100785.53;5108990;28;20040;-63
2023/04/05 05:15:02;;;;;;;3.35;2.78;;;;;;;-0.48;87.62;100784.59;5108968;28;20111;-63
2023/04/05 05:17:27;;;;;;;5.05;2.38;;;;;;;-0.55;88.59;100791.97;5108537;28;20526;-63
2023/04/05 05:19:54;;;;;;;4.60;3.45;;;;;;;-0.65;90.22;100790.81;5108896;28;20040;-63
2023/04/05 05:22:19;;;;;;;3.78;2.55;;;;;;;-0.73;89.71;100786.94;5108671;28;20377;-63
2023/04/05 05:24:45;;;;;;;6.40;3.17;;;;;;;-0.85;90.67;100789.34;5108849;28;20046;-62
2023/04/05 05:27:11;;;;;;;4.07;2.95;;;;;;;-0.79;90.60;100798.59;5108319;28;20449;-63
2023/04/05 05:29:36;;;;;;;3.90;3.03;;;;;;;-0.80;90.48;100801.31;5108678;28;20027;-63
2023/04/05 05:32:02;;;;;;;8.15;2.92;;;;;;;-0.83;91.02;100799.72;5105584;28;20028;-63
2023/04/05 05:34:27;;;;;;;3.92;3.13;;;;;;;-0.85;91.11;100805.03;5078448;28;20393;-63
2023/04/05 05:36:56;;;;;;;5.47;3.15;;;;;;;-0.81;91.68;100800.47;5073141;28;20036;-63
2023/04/05 05:39:22;;;;;;;3.85;2.72;;;;;;;-0.87;92.63;100795.56;5074610;28;20041;-63
2023/04/05 05:41:47;;;;;;;4.45;2.80;;;;;;;-0.74;91.26;100803.56;5074543;28;20393;-63
2023/04/05 05:44:13;;;;;;;3.20;2.90;;;;;;;-0.60;90.35;100811.47;5074534;28;20037;-63
2023/04/05 05:46:39;;;;;;;7.45;3.70;;;;;;;-0.49;90.07;100816.09;5074400;28;20036;-64
2023/04/05 05:49:04;;;;;;;3.30;2.60;;;;;;;-0.46;90.30;100805.44;5074141;28;20036;-63
2023/04/05 05:51:31;;;;;;;3.75;2.55;;;;;;;-0.38;90.52;100822.41;5074406;28;20103;-63
2023/04/05 05:53:56;;;;;;;3.10;2.67;;;;;;;-0.28;89.40;100820.91;5074485;28;20032;-64
2023/04/05 05:56:22;;;;;;;3.47;2.58;;;;;;;-0.22;88.60;100819.72;5074368;28;20118;-63
2023/04/05 05:58:48;;;;;;;6.30;3.72;;;;;;;-0.25;87.58;100803.34;5074049;28;20040;-63
2023/04/05 06:01:13;;;;;;;4.63;2.78;;;;;;;-0.06;86.97;100824.91;5074336;28;20055;-64
2023/04/05 06:03:39;;;;;;;4.55;2.63;;;;;;;0.05;86.60;100817.22;5074221;28;20595;-64
2023/04/05 06:06:07;;;;;;;4.32;3.15;;;;;;;0.26;86.00;100834.28;5074178;28;20040;-64
2023/04/05 06:08:33;;;;;;;5.60;3.15;;;;;;;0.28;85.60;100833.34;5073860;28;20040;-64
2023/04/05 06:10:58;;;;;;;3.92;3.08;;;;;;;0.36;86.76;100841.59;5074138;28;20036;-58
2023/04/05 06:13:23;;;;;;;5.85;2.88;;;;;;;0.49;84.72;100838.13;5074086;28;20039;-62
2023/04/05 06:15:49;;;;;;;3.88;2.97;;;;;;;0.71;82.05;100828.91;5073981;28;20119;-60
2023/04/05 06:18:15;;;;;;;4.85;3.20;;;;;;;0.84;80.69;100837.69;5073650;28;20400;-59
2023/04/05 06:20:43;;;;;;;3.67;2.47;;;;;;;0.95;81.10;100835.25;5073699;28;20036;-57
2023/04/05 06:23:10;;;;;;;5.20;3.20;;;;;;;1.13;80.48;100833.22;5073984;28;20038;-57
2023/04/05 06:25:35;;;;;;;4.20;3.20;;;;;;;1.21;78.73;100819.59;5091826;28;20028;-60
2023/04/05 06:28:03;;;;;;;3.63;3.00;;;;;;;1.33;78.56;100821.44;5093592;28;20541;-61
2023/04/05 06:30:28;;;;;;;4.03;2.77;;;;;;;1.48;76.90;100827.47;5094003;28;20115;-64
2023/04/05 06:32:54;;;;;;;3.45;2.85;;;;;;;1.55;75.94;100828.75;5093791;28;20087;-61
2023/04/05 06:35:21;;;;;;;3.28;2.40;;;;;;;1.66;75.64;100828.88;5093943;28;20478;-61
2023/04/05 06:37:46;;;;;;;4.45;2.80;;;;;;;1.75;74.60;100828.25;5093423;28;20042;-62
2023/04/05 06:40:12;;;;;;;5.45;2.95;;;;;;;1.73;74.80;100822.28;5093884;28;20039;-61
2023/04/05 06:42:37;;;;;;;3.95;2.88;;;;;;;2.01;72.99;100821.25;5093728;28;20038;-59
2023/04/05 06:45:05;;;;;;;3.93;3.03;;;;;;;2.13;70.36;100823.03;5091320;28;20500;-62
2023/04/05 06:47:34;;;;;;;3.28;2.42;;;;;;;2.33;69.17;100816.41;5093285;28;20047;-63
2023/04/05 06:50:01;;;;;;;5.93;3.40;;;;;;;2.40;67.20;100816.81;5093729;28;20385;-62
2023/04/05 06:52:27;;;;;;;2.88;2.42;;;;;;;2.36;66.59;100816.19;5093505;28;20036;-61
2023/04/05 06:54:52;;;;;;;4.18;2.70;;;;;;;2.48;66.41;100822.41;5093479;28;20037;-61
2023/04/05 06:57:17;;;;;;;4.00;2.88;;;;;;;2.53;66.28;100819.44;5093005;28;20496;-62
2023/04/05 06:59:43;;;;;;;4.00;2.80;;;;;;;2.53;66.06;100819.44;5093371;28;20030;-63
2023/04/05 07:02:08;;;;;;;5.75;3.13;;;;;;;2.70;64.90;100808.56;5093227;28;20123;-61
2023/04/05 07:04:35;;;;;;;3.42;2.60;;;;;;;2.80;64.08;100812.22;5093306;28;20493;-62
2023/04/05 07:07:02;;;;;;;4.93;2.83;;;;;;;2.88;63.94;100809.88;5092909;28;20040;-61
2023/04/05 07:09:31;;;;;;;4.32;3.08;;;;;;;2.86;63.82;100809.13;5093080;28;20654;-64
2023/04/05 07:11:57;;;;;;;5.70;3.45;;;;;;;3.21;62.87;100814.50;5093101;28;20047;-61
2023/04/05 07:14:23;;;;;;;5.60;2.88;;;;;;;3.09;63.13;100809.28;5093082;28;20068;-61
2023/04/05 07:16:48;;;;;;;5.25;2.90;;;;;;;3.34;63.57;100808.34;5092891;28;20122;-62
2023/04/05 07:19:14;;;;;;;3.92;2.88;;;;;;;3.46;63.65;100807.44;5092863;28;20039;-61
2023/04/05 07:21:39;;;;;;;4.03;2.88;;;;;;;3.42;62.21;100806.81;5092845;28;20036;-63
2023/04/05 07:24:05;;;;;;;7.57;3.20;;;;;;;3.30;62.28;100810.34;5092935;28;20105;-65
2023/04/05 07:26:34;;;;;;;3.50;2.97;;;;;;;3.58;61.94;100809.13;5092769;28;20476;-65
2023/04/05 07:29:05;;;;;;;4.22;3.05;;;;;;;3.46;61.74;100810.91;5092436;28;20092;-65
2023/04/05 07:31:30;;;;;;;3.22;2.70;;;;;;;3.69;60.34;100813.59;5092760;28;20048;-64
2023/04/05 07:33:57;;;;;;;3.17;2.42;;;;;;;3.77;60.26;100812.06;5092634;28;20110;-66
2023/04/05 07:36:23;;;;;;;3.80;3.00;;;;;;;3.90;60.05;100808.50;5092551;28;20032;-64
2023/04/05 07:38:48;;;;;;;3.58;2.80;;;;;;;4.00;60.77;100807.69;5092318;28;20377;-63
2023/04/05 07:41:15;;;;;;;4.20;3.00;;;;;;;4.13;59.89;100809.38;5092641;28;20123;-65
2023/04/05 07:43:41;;;;;;;3.67;2.77;;;;;;;4.20;60.09;100815.88;5092473;28;20450;-65
2023/04/05 07:46:06;;;;;;;9.02;3.03;;;;;;;4.43;58.97;100820.19;5091169;28;20342;-65
2023/04/05 07:48:32;;;;;;;4.00;2.83;;;;;;;4.44;59.94;100821.88;5092219;28;20123;-62
2023/04/05 07:51:05;;;;;;;4.65;2.78;;;;;;;4.40;57.90;100815.16;5074331;28;20054;-66
2023/04/05 07:53:31;;;;;;;2.78;2.45;;;;;;;4.54;59.28;100820.19;5092470;28;20396;-65
2023/04/05 07:55:58;;;;;;;3.60;2.58;;;;;;;4.72;61.00;100812.63;5092013;28;20020;-65
2023/04/05 07:58:24;;;;;;;3.47;2.70;;;;;;;4.97;59.90;100814.16;5092104;28;20063;-64
2023/04/05 08:00:52;;;;;;;4.10;2.53;;;;;;;4.90;55.69;100813.81;5092401;28;20097;-64
2023/04/05 08:03:17;;;;;;;4.88;3.05;;;;;;;4.98;57.14;100815.81;5092383;28;20043;-64
2023/04/05 08:05:43;;;;;;;3.30;2.22;;;;;;;5.15;55.90;100817.94;5092194;28;20032;-66
2023/04/05 08:08:10;;;;;;;3.35;2.28;;;;;;;5.29;53.83;100813.34;5092088;28;20047;-64
2023/04/05 08:10:39;;;;;;;3.80;2.83;;;;;;;5.40;55.02;100816.75;5092115;28;20064;-61
2023/04/05 08:13:05;;;;;;;2.85;2.30;;;;;;;5.45;54.56;100819.03;5092209;28;20089;-65
2023/04/05 08:15:33;;;;;;;4.63;3.00;;;;;;;5.57;54.40;100818.03;5092200;28;20071;-64
2023/04/05 08:17:59;;;;;;;3.03;2.63;;;;;;;5.70;53.86;100813.41;5091801;28;20127;-63
2023/04/05 08:20:25;;;;;;;2.92;2.38;;;;;;;5.91;52.20;100820.53;5092092;28;20132;-63
2023/04/05 08:22:50;;;;;;;3.55;2.58;;;;;;;5.89;54.46;100812.69;5092173;28;20042;-61
2023/04/05 08:25:16;;;;;;;2.60;2.28;;;;;;;6.21;52.97;100812.63;5091995;28;20075;-64
2023/04/05 08:27:41;;;;;;;4.70;2.60;;;;;;;6.32;52.06;100808.22;5091518;28;20036;-63
2023/04/05 08:30:07;;;;;;;3.80;2.80;;;;;;;6.15;52.16;100807.88;5091957;28;20108;-62
2023/04/05 08:32:33;;;;;;;3.83;2.55;;;;;;;6.42;51.25;100803.81;5091903;28;20047;-62
2023/04/05 08:34:59;;;;;;;4.07;2.58;;;;;;;6.43;50.12;100808.13;5091906;28;20070;-64
2023/04/05 08:37:25;;;;;;;4.55;2.58;;;;;;;6.46;49.22;100806.06;5091661;28;20075;-63
2023/04/05 08:39:50;;;;;;;3.95;2.55;;;;;;;6.31;49.98;100798.59;5091893;28;20063;-63
2023/04/05 08:42:17;;;;;;;3.70;2.63;;;;;;;6.70;51.23;100803.06;5091912;28;20047;-61
2023/04/05 08:44:47;;;;;;;3.78;2.58;;;;;;;6.73;48.93;100799.34;5091943;28;20032;-61
2023/04/05 08:47:17;;;;;;;3.22;2.47;;;;;;;6.82;49.96;100806.47;5091456;28;20089;-64
2023/04/05 08:49:43;;;;;;;3.30;2.38;;;;;;;6.98;49.82;100804.16;5091979;28;20044;-63
2023/04/05 08:52:09;;;;;;;3.13;2.13;;;;;;;7.13;50.42;100787.84;5091735;28;20103;-63
2023/04/05 08:54:34;;;;;;;3.25;2.55;;;;;;;7.11;46.84;100801.25;5091753;28;20068;-63
2023/04/05 08:57:03;;;;;;;3.92;2.58;;;;;;;7.21;45.80;100802.06;5091465;28;20032;-64
2023/04/05 08:59:31;;;;;;;3.47;2.35;;;;;;;7.42;45.70;100806.41;5091758;28;20036;-63
2023/04/05 09:01:57;;;;;;;3.13;2.55;;;;;;;7.51;45.45;100800.28;5091631;28;20119;-64
2023/04/05 09:04:27;;;;;;;2.60;2.20;;;;;;;7.59;45.49;100803.91;5091621;28;20485;-67
2023/04/05 09:06:56;;;;;;;4.03;2.58;;;;;;;7.79;44.17;100795.94;5091470;28;20162;-64
2023/04/05 09:09:23;;;;;;;4.10;2.72;;;;;;;7.77;45.21;100798.72;5095274;28;20048;-66
2023/04/05 09:11:48;;;;;;;4.93;3.20;;;;;;;7.92;46.33;100799.13;5095376;28;20062;-65
2023/04/05 09:14:15;;;;;;;3.47;2.25;;;;;;;8.20;44.45;100794.69;5095499;28;20036;-67
2023/04/05 09:16:41;;;;;;;3.13;2.25;;;;;;;8.07;44.27;100796.84;5095273;28;20035;-66
2023/04/05 09:19:07;;;;;;;3.22;2.35;;;;;;;8.47;44.61;100791.28;5095037;28;20043;-65
2023/04/05 09:22:02;;;;;;;2.65;2.10;;;;;;;8.77;43.65;100794.66;5095156;28;20088;-66
2023/04/05 09:24:42;;;;;;;3.63;2.42;;;;;;;8.79;41.79;100785.53;5093850;28;20035;-66
2023/04/05 09:27:15;;;;;;;4.30;2.63;;;;;;;9.06;44.94;100786.47;5094835;28;20051;-66
2023/04/05 09:29:45;;;;;;;2.70;2.30;;;;;;;9.50;42.43;100790.06;5093766;28;20047;-67
2023/04/05 09:32:12;;;;;;;3.22;2.35;;;;;;;9.88;41.01;100790.72;5095038;28;20040;-66
2023/04/05 09:34:40;;;;;;;4.30;2.55;;;;;;;9.43;41.56;100784.53;5095039;28;20028;-67
2023/04/05 09:37:14;;;;;;;2.75;2.15;;;;;;;9.66;41.65;100774.25;5093425;28;20130;-65
2023/04/05 09:39:41;;;;;;;3.40;2.25;;;;;;;9.45;41.06;100779.06;5094858;28;20036;-66
2023/04/05 09:42:07;;;;;;;3.78;2.30;;;;;;;9.75;39.57;100772.50;5094879;28;20036;-67
2023/04/05 09:44:48;;;;;;;2.95;2.38;;;;;;;10.32;39.52;100780.88;5093509;28;20497;-66
2023/04/05 09:47:16;;;;;;;3.58;2.30;;;;;;;10.79;37.92;100767.91;5094485;28;20032;-67
2023/04/05 09:49:41;;;;;;;3.28;2.42;;;;;;;10.78;39.52;100771.56;5094822;28;20061;-67
2023/04/05 09:52:20;;;;;;;4.07;2.63;;;;;;;10.40;39.63;100785.41;5094611;28;20028;-66
2023/04/05 09:54:46;;;;;;;4.50;2.38;;;;;;;10.21;41.47;100773.13;5094667;28;20040;-66
2023/04/05 09:57:12;;;;;;;2.75;2.17;;;;;;;10.50;37.25;100776.31;5094212;28;20473;-65
2023/04/05 09:59:40;;;;;;;2.97;2.22;;;;;;;11.07;36.54;100770.31;5094619;28;20062;-67
2023/04/05 10:02:06;;;;;;;2.75;2.45;;;;;;;10.97;37.84;100765.13;5094516;28;20369;-66
2023/04/05 10:04:38;;;;;;;3.40;2.40;;;;;;;11.34;39.49;100761.16;5094379;28;20093;-66
2023/04/05 10:07:05;;;;;;;3.00;2.30;;;;;;;10.93;37.74;100763.78;5094067;28;20032;-66
2023/04/05 10:09:31;;;;;;;2.33;1.90;;;;;;;11.47;38.42;100755.34;5094331;28;20043;-67
2023/04/05 10:11:57;;;;;;;3.50;2.20;;;;;;;12.45;35.09;100746.19;5094184;28;20032;-67
2023/04/05 10:14:22;;;;;;;2.80;2.20;;;;;;;13.09;33.23;100758.53;5094217;28;20043;-66
2023/04/05 10:17:14;;;;;;;3.13;2.40;;;;;;;13.55;33.47;100760.22;5092733;28;20115;-65
2023/04/05 10:19:58;;;;;;;6.18;2.40;;;;;;;13.68;31.67;100758.78;5092769;28;20454;-67
2023/04/05 10:22:32;;;;;;;2.40;1.90;;;;;;;14.09;32.51;100746.69;5093996;28;20040;-67
2023/04/05 10:25:07;;;;;;;3.45;2.05;;;;;;;14.25;33.00;100751.00;5094070;28;20040;-67
2023/04/05 10:27:40;;;;;;;5.63;2.20;;;;;;;14.25;31.68;100753.69;5093760;28;20043;-66
2023/04/05 10:30:07;;;;;;;2.95;2.45;;;;;;;14.69;29.76;100742.13;5093885;28;20590;-66
2023/04/05 10:33:00;;;;;;;2.53;2.13;;;;;;;14.43;29.94;100744.47;5093839;28;20036;-66
2023/04/05 10:35:39;;;;;;;2.72;2.25;;;;;;;13.82;29.99;100744.59;5093649;28;20063;-66
2023/04/05 10:38:23;;;;;;;3.13;2.03;;;;;;;14.76;32.25;100736.84;5093494;28;20040;-66
2023/04/05 10:40:54;;;;;;;3.05;2.22;;;;;;;14.12;30.10;100743.63;5093773;28;20040;-66
2023/04/05 10:43:25;;;;;;;2.83;2.30;;;;;;;13.26;32.02;100739.56;5093644;28;20044;-66
2023/04/05 10:45:52;;;;;;;3.78;2.50;;;;;;;14.98;31.26;100727.81;5093587;28;20036;-66
2023/04/05 10:48:30;;;;;;;3.57;2.63;;;;;;;15.69;33.23;100728.69;5093348;28;20048;-67
2023/04/05 10:50:57;;;;;;;3.38;2.47;;;;;;;15.03;30.05;100725.38;5093509;28;20297;-66
2023/04/05 10:53:24;;;;;;;3.22;2.50;;;;;;;14.98;29.11;100726.97;5093524;28;20040;-67
2023/04/05 10:55:51;;;;;;;2.83;2.13;;;;;;;16.03;27.83;100724.38;5093441;28;20040;-66
2023/04/05 10:58:17;;;;;;;2.67;2.08;;;;;;;16.29;27.56;100721.00;5093035;28;20058;-66
2023/04/05 11:00:43;;;;;;;3.47;2.50;;;;;;;15.33;28.24;100718.06;5093392;28;20068;-67
2023/04/05 11:03:08;;;;;;;3.22;2.67;;;;;;;16.01;27.25;100724.59;5093310;28;20046;-66
2023/04/05 11:05:36;;;;;;;2.45;2.22;;;;;;;16.40;27.16;100720.47;5093171;28;20497;-67
2023/04/05 11:08:06;;;;;;;3.75;2.55;;;;;;;16.74;26.54;100716.06;5092933;28;20485;-64
2023/04/05 11:10:36;;;;;;;2.33;2.10;;;;;;;15.20;28.50;100707.19;5093068;28;20035;-67
2023/04/05 11:13:03;;;;;;;2.35;1.98;;;;;;;16.14;27.60;100706.88;5092984;28;20111;-67
2023/04/05 11:15:33;;;;;;;4.18;2.75;;;;;;;15.48;27.83;100705.38;5093019;28;20120;-66
2023/04/05 11:18:05;;;;;;;3.15;2.85;;;;;;;15.86;29.13;100706.94;5092747;28;20081;-66
2023/04/05 11:21:04;;;;;;;2.92;2.28;;;;;;;15.03;29.20;100701.25;5092834;28;20039;-65
2023/04/05 11:23:29;;;;;;;3.22;2.28;;;;;;;16.42;27.96;100694.19;5092967;28;20124;-66
2023/04/05 11:26:05;;;;;;;3.92;2.38;;;;;;;16.51;26.76;100695.69;5091656;28;20548;-65
2023/04/05 11:28:42;;;;;;;3.55;2.28;;;;;;;17.20;25.98;100697.31;5092559;28;20063;-66
2023/04/05 11:31:18;;;;;;;4.23;2.60;;;;;;;15.72;27.58;100690.72;5092309;28;20035;-66
2023/04/05 11:33:44;;;;;;;4.20;2.70;;;;;;;15.50;27.49;100690.91;5092876;28;20036;-64
2023/04/05 11:36:09;;;;;;;2.65;2.30;;;;;;;15.55;27.63;100683.94;5092631;28;20089;-65
2023/04/05 11:38:36;;;;;;;3.05;2.70;;;;;;;15.63;28.84;100681.13;5092391;28;20093;-66
2023/04/05 11:41:12;;;;;;;3.65;2.33;;;;;;;16.74;26.09;100690.00;5088088;28;20039;-66
2023/04/05 11:43:37;;;;;;;3.22;2.40;;;;;;;17.38;25.16;100685.94;5072299;28;20156;-66
2023/04/05 11:46:06;;;;;;;4.03;2.15;;;;;;;15.96;27.43;100681.34;5075315;28;20044;-66
2023/04/05 11:48:33;;;;;;;3.30;2.38;;;;;;;17.46;26.48;100685.72;5080219;28;20056;-67
2023/04/05 11:50:59;;;;;;;2.70;2.20;;;;;;;17.92;24.58;100681.34;5079784;28;20366;-65
2023/04/05 11:53:24;;;;;;;2.88;2.40;;;;;;;16.70;26.19;100678.00;5086751;28;20315;-67
2023/04/05 11:55:51;;;;;;;3.85;2.42;;;;;;;16.74;25.85;100675.72;5090838;28;20060;-67
2023/04/05 11:58:20;;;;;;;3.40;2.35;;;;;;;15.46;30.80;100675.22;5084978;28;20034;-65
2023/04/05 12:00:56;;;;;;;2.65;2.33;;;;;;;15.82;29.04;100662.66;5091557;28;20082;-66
2023/04/05 12:03:21;;;;;;;2.58;2.30;;;;;;;16.25;29.90;100666.84;5091857;28;20044;-65
2023/04/05 12:05:51;;;;;;;3.03;2.60;;;;;;;15.98;27.50;100662.38;5091296;28;20032;-67
2023/04/05 12:08:21;;;;;;;2.78;2.30;;;;;;;16.65;28.12;100660.78;5090876;28;20374;-67
2023/04/05 12:10:57;;;;;;;3.35;2.50;;;;;;;15.87;28.57;100652.19;5091580;28;20481;-66
2023/04/05 12:13:32;;;;;;;2.50;2.00;;;;;;;17.79;25.46;100666.88;5091750;28;20036;-66
2023/04/05 12:16:03;;;;;;;4.22;2.70;;;;;;;17.62;24.51;100662.94;5091796;28;20119;-66
2023/04/05 12:18:30;;;;;;;2.90;2.35;;;;;;;18.08;25.07;100662.88;5090685;28;20050;-67
2023/04/05 12:20:56;;;;;;;2.92;2.35;;;;;;;18.34;25.43;100658.44;5091727;28;20130;-62
2023/04/05 12:23:23;;;;;;;3.42;2.08;;;;;;;18.36;26.82;100659.84;5091956;28;20123;-58
2023/04/05 12:25:50;;;;;;;4.65;2.10;;;;;;;17.86;27.12;100653.38;5091667;28;20481;-51
2023/04/05 12:28:16;;;;;;;3.30;2.30;;;;;;;18.43;27.49;100651.72;5083024;28;20047;-67
2023/04/05 12:30:56;;;;;;;4.40;2.40;;;;;;;15.94;28.68;100645.81;5085780;28;20040;-67
2023/04/05 12:33:32;;;;;;;3.05;2.40;;;;;;;16.05;28.11;100646.28;5091710;28;20044;-68
2023/04/05 12:36:02;;;;;;;5.53;2.60;;;;;;;17.96;27.01;100645.69;5091935;28;20044;-68
2023/04/05 12:38:29;;;;;;;3.80;2.47;;;;;;;16.65;29.48;100626.63;5090747;28;20122;-68
2023/04/05 12:41:00;;;;;;;3.60;2.67;;;;;;;17.41;29.31;100638.91;5091320;28;20089;-68
2023/04/05 12:43:25;;;;;;;3.05;2.40;;;;;;;18.12;28.35;100630.91;5093932;28;20484;-67
2023/04/05 12:45:55;;;;;;;4.43;2.17;;;;;;;18.04;25.67;100631.97;5095534;28;20044;-67
2023/04/05 12:48:24;;;;;;;3.63;2.80;;;;;;;18.55;26.39;100627.63;5094730;28;20040;-67
2023/04/05 12:50:53;;;;;;;2.95;2.50;;;;;;;19.22;25.77;100626.13;5095743;28;20508;-67
2023/04/05 12:53:27;;;;;;;2.85;2.47;;;;;;;18.00;26.82;100629.94;5095445;28;20036;-67
2023/04/05 12:55:57;;;;;;;4.25;2.65;;;;;;;18.51;25.34;100619.13;5095300;28;20036;-67
2023/04/05 12:58:33;;;;;;;3.88;2.33;;;;;;;17.72;26.94;100620.25;5080091;28;20028;-67
2023/04/05 13:00:59;;;;;;;4.28;2.85;;;;;;;17.85;26.89;100616.69;5075099;28;20037;-67
2023/04/05 13:03:26;;;;;;;3.55;2.28;;;;;;;19.22;27.90;100621.53;5075061;28;20037;-67
2023/04/05 13:05:51;;;;;;;5.10;2.78;;;;;;;17.20;27.50;100618.44;5074979;28;20406;-67
2023/04/05 13:08:17;;;;;;;4.68;2.58;;;;;;;17.04;28.41;100617.81;5074018;28;20044;-67
2023/04/05 13:10:45;;;;;;;3.47;2.38;;;;;;;17.05;28.14;100614.09;5074493;28;20103;-67
2023/04/05 13:13:12;;;;;;;2.33;2.00;;;;;;;18.10;27.45;100609.56;5074612;28;20123;-67
2023/04/05 13:15:38;;;;;;;2.80;1.90;;;;;;;17.77;26.90;100603.47;5074789;28;20044;-65
2023/04/05 13:18:04;;;;;;;3.00;2.55;;;;;;;17.77;25.83;100603.47;5073942;28;20087;-65
2023/04/05 13:20:30;;;;;;;2.78;2.20;;;;;;;18.91;24.44;100597.31;5074755;28;20043;-65
2023/04/05 13:22:55;;;;;;;3.38;2.28;;;;;;;20.28;23.89;100596.13;5073565;28;20032;-64
2023/04/05 13:25:21;;;;;;;2.90;2.30;;;;;;;19.37;21.75;100593.41;5074431;28;20040;-65
2023/04/05 13:27:46;;;;;;;2.38;2.10;;;;;;;18.14;21.30;100589.25;5074606;28;20551;-65
2023/04/05 13:30:12;;;;;;;3.67;2.33;;;;;;;19.50;21.69;100579.75;5074797;28;20098;-65
2023/04/05 13:32:37;;;;;;;3.05;2.08;;;;;;;18.28;23.99;100583.78;5074705;28;20045;-64
2023/04/05 13:35:04;;;;;;;2.35;2.05;;;;;;;18.25;23.32;100585.03;5074804;28;20086;-65
2023/04/05 13:37:29;;;;;;;2.70;2.25;;;;;;;18.78;23.90;100584.75;5074370;28;20090;-64
2023/04/05 13:39:55;;;;;;;3.38;2.58;;;;;;;18.51;25.33;100575.94;5074722;28;20443;-65
2023/04/05 13:42:22;;;;;;;4.70;2.25;;;;;;;18.15;25.16;100579.28;5074694;28;20452;-64
2023/04/05 13:44:48;;;;;;;;;;;;;;;18.67;26.50;100572.78;5075125;28;20037;-64
2023/04/05 13:47:14;;;;;;;2.80;2.05;;;;;;;18.96;24.45;100575.88;5074236;28;19912;-65
2023/04/05 13:49:41;;;;;;;3.67;2.22;;;;;;;16.52;28.57;100572.81;5074529;28;20042;-64
2023/04/05 13:52:06;;;;;;;3.80;2.53;;;;;;;17.66;24.51;100564.50;5074423;28;20033;-64
2023/04/05 13:54:31;;;;;;;4.00;2.40;;;;;;;18.34;23.27;100564.03;5073866;28;20067;-64
2023/04/05 13:56:57;;;;;;;3.58;2.10;;;;;;;17.87;25.11;100566.16;5074176;28;20040;-65
2023/04/05 13:59:24;;;;;;;3.08;2.47;;;;;;;16.69;28.58;100568.72;5074296;28;20043;-60
2023/04/05 14:01:49;;;;;;;2.92;2.10;;;;;;;16.45;28.39;100566.63;5074276;28;20036;-67
2023/04/05 14:04:15;;;;;;;2.28;2.08;;;;;;;15.86;29.49;100556.50;5074238;28;20048;-64
2023/04/05 14:06:41;;;;;;;3.35;2.10;;;;;;;15.99;30.82;100548.50;5073971;28;20037;-64
2023/04/05 14:09:06;;;;;;;2.75;1.95;;;;;;;14.90;30.18;100548.22;5073696;28;20024;-63
2023/04/05 14:11:33;;;;;;;2.63;2.10;;;;;;;14.44;29.16;100548.63;5074002;28;20044;-64
2023/04/05 14:13:59;;;;;;;2.17;1.63;;;;;;;14.23;29.00;100554.78;5072665;28;20499;-63
2023/04/05 14:16:24;;;;;;;2.35;2.10;;;;;;;14.47;28.16;100539.38;5073776;28;20040;-63
2023/04/05 14:18:50;;;;;;;2.28;1.92;;;;;;;13.66;30.78;100546.69;5073643;28;20078;-64
2023/04/05 14:21:15;;;;;;;3.13;2.10;;;;;;;13.25;34.64;100561.34;5073795;28;20056;-63
2023/04/05 14:23:41;;;;;;;2.13;1.80;;;;;;;13.13;32.59;100556.59;5073474;28;20109;-66
2023/04/05 14:26:06;;;;;;;2.42;1.80;;;;;;;13.23;29.03;100530.44;5073813;28;20485;-62
2023/04/05 14:28:32;;;;;;;3.92;1.77;;;;;;;13.39;31.31;100540.13;5073455;28;20036;-66
2023/04/05 14:30:58;;;;;;;2.35;1.75;;;;;;;13.37;28.94;100537.66;5073681;28;20528;-63
2023/04/05 14:33:25;;;;;;;3.58;2.10;;;;;;;13.40;33.11;100544.47;5073611;28;20044;-62
2023/04/05 14:35:52;;;;;;;3.03;2.05;;;;;;;13.13;29.41;100537.88;5073585;28;20036;-63
2023/04/05 14:38:17;;;;;;;2.30;1.67;;;;;;;12.87;32.14;100535.63;5073052;28;20563;-64
2023/04/05 14:40:43;;;;;;;3.47;1.63;;;;;;;13.23;29.79;100525.06;5073478;28;20063;-64
2023/04/05 14:43:08;;;;;;;2.58;1.83;;;;;;;13.49;28.23;100524.63;5073463;28;20374;-62
2023/04/05 14:45:34;;;;;;;1.88;1.63;;;;;;;12.41;29.27;100535.66;5073231;28;20127;-64
2023/04/05 14:47:59;;;;;;;1.95;1.70;;;;;;;11.77;31.19;100522.47;5071784;28;20036;-63
2023/04/05 14:50:25;;;;;;;2.08;1.80;;;;;;;11.95;28.97;100519.59;5073145;28;20052;-64
2023/04/05 14:52:54;;;;;;;3.60;1.75;;;;;;;11.99;31.32;100522.72;5073064;28;20044;-63
2023/04/05 14:55:19;;;;;;;3.80;1.58;;;;;;;12.36;32.29;100511.31;5073137;28;20037;-64
2023/04/05 14:57:45;;;;;;;2.47;1.85;;;;;;;11.78;31.05;100517.97;5072812;28;20049;-63
2023/04/05 15:00:11;;;;;;;2.90;1.90;;;;;;;11.74;27.98;100517.50;5073094;28;20044;-63
2023/04/05 15:02:37;;;;;;;3.25;1.90;;;;;;;11.99;32.75;100517.38;5073065;28;20059;-64
2023/04/05 15:05:04;;;;;;;3.13;1.92;;;;;;;12.04;29.57;100518.53;5072117;28;20521;-52
2023/04/05 15:07:29;;;;;;;2.37;1.87;;;;;;;12.11;29.31;100521.31;5072547;28;20047;-56
2023/04/05 15:09:55;;;;;;;2.10;1.50;;;;;;;11.48;29.24;100514.28;5110249;28;20035;-59
2023/04/05 15:12:20;;;;;;;1.75;1.65;;;;;;;11.54;31.09;100514.44;5113353;28;20040;-58
2023/04/05 15:14:47;;;;;;;2.63;1.85;;;;;;;11.88;28.39;100518.63;5113476;28;20039;-53
2023/04/05 15:17:13;;;;;;;2.58;1.73;;;;;;;11.56;29.46;100511.56;5112980;28;20039;-58
2023/04/05 15:19:39;;;;;;;2.47;1.90;;;;;;;11.14;27.26;100508.19;5113271;28;20034;-60
2023/04/05 15:22:05;;;;;;;2.10;1.58;;;;;;;11.13;29.35;100513.69;5113080;28;20067;-61
2023/04/05 15:24:30;;;;;;;3.78;2.28;;;;;;;11.29;28.96;100499.50;5113117;28;20040;-61
2023/04/05 15:27:00;;;;;;;2.50;1.88;;;;;;;11.65;32.39;100502.50;5112850;28;20050;-59
2023/04/05 15:29:27;;;;;;;3.55;1.60;;;;;;;11.28;28.15;100503.16;5113309;28;20046;-56
2023/04/05 15:31:52;;;;;;;2.63;1.80;;;;;;;11.51;29.44;100498.75;5112961;28;20036;-64
2023/04/05 15:34:18;;;;;;;5.00;1.80;;;;;;;11.55;32.48;100501.91;5112997;28;20039;-64
2023/04/05 15:36:44;;;;;;;1.88;1.65;;;;;;;11.28;28.18;100489.81;5112741;28;20093;-63
2023/04/05 15:39:09;;;;;;;1.95;1.70;;;;;;;11.52;31.95;100491.56;5112801;28;20063;-66
2023/04/05 15:41:35;;;;;;;2.67;2.17;;;;;;;11.44;28.61;100489.78;5112908;28;20445;-66
2023/04/05 15:44:02;;;;;;;2.13;1.65;;;;;;;11.45;28.87;100490.59;5112784;28;20063;-64
2023/04/05 15:46:28;;;;;;;1.83;1.50;;;;;;;11.45;29.29;100490.59;5112811;28;20031;-66
2023/04/05 15:48:53;;;;;;;1.65;1.42;;;;;;;11.53;29.74;100487.91;5111212;28;20050;-66
2023/04/05 15:51:19;;;;;;;4.15;1.60;;;;;;;11.63;30.26;100484.03;5112633;28;20118;-64
2023/04/05 15:53:45;;;;;;;2.97;1.90;;;;;;;11.49;30.08;100482.09;5112727;28;20504;-64
2023/04/05 15:56:10;;;;;;;3.03;1.83;;;;;;;11.46;30.88;100485.09;5112649;28;20027;-66